Terminal Aerodrome Forecast
Issued by NWS

Home | Current Version | Previous Version | Text Only | Print | Product List | Glossary On
Versions: 1 2 3 4 5 6 7 8 9 10 11 12 13
163
FTUS44 KBMX 221917 AAA
TAFANB
TAF AMD
KANB 221917Z 2219/2318 13008KT P6SM SCT025 OVC060
     FM230100 12010G18KT 5SM -RA OVC040
     FM230600 12007KT 5SM -SHRA VCTS OVC020CB
     FM230900 23005KT 3SM -RA VCTS OVC008CB
     FM231400 27008KT P6SM VCSH OVC010=

USA.gov is the U.S. government's official web portal to all federal, state and local government web resources and services.